createdAt,value
2022-12-08T00:01:32.481Z,2.20
2022-12-08T00:04:04.652Z,2.30
2022-12-08T00:06:56.018Z,2.30
2022-12-08T00:09:36.374Z,2.30
2022-12-08T00:12:17.664Z,2.30
2022-12-08T00:14:47.723Z,2.40
2022-12-08T00:17:16.726Z,2.40
2022-12-08T00:19:45.086Z,2.40
2022-12-08T00:22:14.744Z,2.30
2022-12-08T00:24:45.530Z,2.30
2022-12-08T00:27:16.414Z,2.30
2022-12-08T00:29:45.607Z,2.30
2022-12-08T00:32:13.513Z,2.30
2022-12-08T00:34:40.627Z,2.30
2022-12-08T00:37:07.714Z,2.40
2022-12-08T00:39:34.974Z,2.20
2022-12-08T00:42:13.942Z,2.30
2022-12-08T00:44:43.057Z,2.30
2022-12-08T00:47:11.194Z,2.20
2022-12-08T00:49:38.402Z,2.20
2022-12-08T00:52:05.740Z,2.20
2022-12-08T00:54:32.806Z,2.40
2022-12-08T00:56:59.889Z,2.30
2022-12-08T00:59:27.004Z,2.30
2022-12-08T01:01:54.094Z,2.30
2022-12-08T01:04:22.114Z,2.40
2022-12-08T01:06:49.777Z,2.30
2022-12-08T01:09:18.839Z,2.30
2022-12-08T01:11:46.675Z,2.30
2022-12-08T01:14:14.479Z,2.30
2022-12-08T01:16:42.421Z,2.30
2022-12-08T01:19:12.412Z,2.30
2022-12-08T01:21:40.792Z,2.30
2022-12-08T01:24:12.671Z,2.30
2022-12-08T01:26:39.989Z,2.30
2022-12-08T01:29:07.276Z,2.30
2022-12-08T01:31:34.379Z,2.30
2022-12-08T01:34:01.658Z,2.20
2022-12-08T01:36:33.973Z,2.20
2022-12-08T01:39:02.366Z,2.20
2022-12-08T01:41:33.988Z,2.20
2022-12-08T01:44:10.923Z,2.20
2022-12-08T01:46:44.943Z,2.20
2022-12-08T01:49:20.380Z,2.20
2022-12-08T01:52:05.327Z,2.20
2022-12-08T01:54:39.792Z,2.20
2022-12-08T01:57:34.579Z,2.20
2022-12-08T02:00:10.609Z,2.20
2022-12-08T02:02:58.581Z,2.20
2022-12-08T02:05:34.709Z,2.20
2022-12-08T02:08:08.140Z,2.30
2022-12-08T02:10:39.668Z,2.30
2022-12-08T02:13:14.150Z,2.30
2022-12-08T02:16:02.803Z,2.50
2022-12-08T02:19:31.368Z,2.30
2022-12-08T02:22:20.237Z,2.30
2022-12-08T02:25:06.462Z,2.30
2022-12-08T02:27:58.177Z,2.30
2022-12-08T02:30:28.271Z,2.30
2022-12-08T02:33:22.985Z,2.20
2022-12-08T02:36:22.273Z,2.20
2022-12-08T02:39:24.829Z,2.20
2022-12-08T02:42:38.645Z,2.30
2022-12-08T02:45:25.318Z,2.30
2022-12-08T02:47:53.721Z,2.30
2022-12-08T02:50:21.072Z,2.30
2022-12-08T02:52:48.824Z,2.30
2022-12-08T02:55:38.519Z,2.30
2022-12-08T02:58:14.365Z,2.30
2022-12-08T03:01:31.606Z,2.30
2022-12-08T03:04:43.179Z,2.40
2022-12-08T03:07:26.991Z,2.40
2022-12-08T03:10:16.040Z,2.40
2022-12-08T03:12:58.681Z,2.40
2022-12-08T03:15:25.864Z,2.40
2022-12-08T03:17:58.341Z,2.40
2022-12-08T03:20:30.015Z,2.50
2022-12-08T03:23:01.516Z,2.40
2022-12-08T03:25:37.888Z,2.40
2022-12-08T03:28:06.419Z,2.40
2022-12-08T03:30:40.140Z,2.40
2022-12-08T03:33:12.872Z,2.40
2022-12-08T03:35:41.556Z,2.40
2022-12-08T03:38:13.144Z,2.40
2022-12-08T03:40:41.748Z,2.40
2022-12-08T03:43:08.887Z,2.40
2022-12-08T03:45:36.593Z,2.40
2022-12-08T03:48:03.761Z,2.40
2022-12-08T03:50:30.827Z,2.40
2022-12-08T03:52:57.898Z,2.40
2022-12-08T03:55:24.972Z,2.50
2022-12-08T03:57:52.019Z,2.50
2022-12-08T04:00:19.412Z,2.50
2022-12-08T04:02:46.625Z,2.40
2022-12-08T04:05:13.805Z,2.40
2022-12-08T04:07:41.004Z,2.40
2022-12-08T04:10:09.138Z,2.50
2022-12-08T04:12:36.229Z,2.90
2022-12-08T04:15:03.461Z,2.40
2022-12-08T04:17:30.512Z,2.40
2022-12-08T04:19:57.576Z,2.40
2022-12-08T04:22:24.635Z,2.40
2022-12-08T04:24:51.744Z,2.40
2022-12-08T04:27:18.949Z,2.50
2022-12-08T04:29:46.030Z,2.40
2022-12-08T04:32:13.130Z,2.30
2022-12-08T04:34:40.199Z,2.40
2022-12-08T04:37:07.312Z,2.50
2022-12-08T04:39:34.395Z,2.30
2022-12-08T04:42:01.551Z,2.40
2022-12-08T04:44:28.628Z,2.40
2022-12-08T04:46:55.732Z,2.40
2022-12-08T04:49:23.061Z,2.30
2022-12-08T04:51:50.135Z,2.40
2022-12-08T04:54:17.236Z,2.40
2022-12-08T04:56:44.408Z,2.40
2022-12-08T04:59:11.477Z,2.40
2022-12-08T05:01:38.614Z,2.40
2022-12-08T05:04:05.775Z,2.40
2022-12-08T05:06:32.830Z,2.50
2022-12-08T05:08:59.876Z,2.50
2022-12-08T05:11:26.942Z,2.50
2022-12-08T05:13:54.085Z,2.40
2022-12-08T05:16:21.221Z,2.40
2022-12-08T05:18:48.313Z,2.40
2022-12-08T05:21:15.538Z,2.60
2022-12-08T05:23:42.627Z,2.90
2022-12-08T05:26:09.709Z,2.80
2022-12-08T05:28:41.851Z,2.40
2022-12-08T05:31:15.005Z,2.30
2022-12-08T05:33:42.914Z,2.30
2022-12-08T05:36:13.757Z,2.40
2022-12-08T05:38:41.557Z,2.40
2022-12-08T05:41:12.747Z,2.40
2022-12-08T05:43:39.806Z,2.30
2022-12-08T05:46:08.841Z,2.30
2022-12-08T05:48:36.986Z,2.90
2022-12-08T05:51:05.102Z,2.30
2022-12-08T05:53:32.179Z,2.30
2022-12-08T05:55:59.259Z,2.40
2022-12-08T05:58:26.325Z,2.30
2022-12-08T06:00:53.359Z,2.30
2022-12-08T06:03:20.537Z,2.30
2022-12-08T06:05:48.362Z,2.20
2022-12-08T06:08:15.749Z,2.30
2022-12-08T06:10:45.437Z,2.20
2022-12-08T06:13:13.465Z,2.20
2022-12-08T06:15:41.853Z,2.20
2022-12-08T06:18:11.186Z,2.20
2022-12-08T06:20:38.255Z,2.20
2022-12-08T06:23:05.329Z,2.10
2022-12-08T06:25:32.431Z,2.20
2022-12-08T06:27:59.531Z,2.40
2022-12-08T06:30:28.433Z,2.20
2022-12-08T06:32:55.539Z,2.20
2022-12-08T06:35:22.731Z,2.20
2022-12-08T06:37:51.657Z,2.20
2022-12-08T06:40:18.821Z,2.20
2022-12-08T06:42:46.898Z,2.20
2022-12-08T06:45:17.771Z,2.30
2022-12-08T06:47:45.166Z,2.20
2022-12-08T06:50:13.975Z,2.20
2022-12-08T06:52:51.697Z,2.20
2022-12-08T06:55:57.315Z,2.20
2022-12-08T06:58:14.557Z,2.20
2022-12-08T07:00:42.562Z,2.20
2022-12-08T07:03:11.493Z,2.20
2022-12-08T07:05:39.543Z,2.20
2022-12-08T07:08:09.180Z,2.20
2022-12-08T07:10:37.017Z,2.20
2022-12-08T07:13:04.459Z,2.20
2022-12-08T07:15:31.850Z,2.20
2022-12-08T07:18:00.402Z,2.20
2022-12-08T07:20:28.116Z,2.20
2022-12-08T07:22:55.257Z,2.20
2022-12-08T07:25:22.608Z,2.20
2022-12-08T07:27:51.593Z,2.20
2022-12-08T07:30:19.014Z,2.10
2022-12-08T07:32:46.455Z,2.10
2022-12-08T07:35:14.063Z,2.10
2022-12-08T07:37:41.247Z,2.10
2022-12-08T07:40:09.803Z,2.30
2022-12-08T07:42:37.136Z,2.20
2022-12-08T07:45:04.616Z,2.20
2022-12-08T07:47:31.762Z,2.20
2022-12-08T07:49:58.979Z,2.20
2022-12-08T07:52:26.153Z,2.30
2022-12-08T07:54:53.228Z,2.30
2022-12-08T07:57:20.309Z,2.20
2022-12-08T07:59:47.416Z,2.20
2022-12-08T08:02:26.930Z,2.20
2022-12-08T08:04:54.494Z,2.20
2022-12-08T08:07:21.673Z,2.20
2022-12-08T08:09:48.750Z,2.20
2022-12-08T08:12:31.448Z,2.20
2022-12-08T08:15:01.062Z,2.20
2022-12-08T08:17:29.254Z,2.20
2022-12-08T08:19:56.924Z,2.20
2022-12-08T08:22:26.230Z,2.20
2022-12-08T08:24:54.269Z,2.20
2022-12-08T08:27:21.476Z,2.20
2022-12-08T08:29:48.561Z,2.20
2022-12-08T08:32:15.651Z,2.30
2022-12-08T08:34:42.738Z,2.30
2022-12-08T08:37:09.927Z,2.40
2022-12-08T08:39:38.261Z,2.30
2022-12-08T08:42:05.343Z,2.30
2022-12-08T08:44:32.418Z,2.40
2022-12-08T08:46:59.475Z,2.40
2022-12-08T08:49:26.637Z,2.40
2022-12-08T08:51:53.691Z,2.40
2022-12-08T08:54:20.736Z,2.50
2022-12-08T08:56:48.420Z,2.50
2022-12-08T08:59:15.466Z,2.50
2022-12-08T09:01:42.582Z,2.50
2022-12-08T09:04:11.098Z,2.40
2022-12-08T09:06:38.388Z,2.50
2022-12-08T09:09:05.812Z,2.50
2022-12-08T09:11:33.453Z,2.60
2022-12-08T09:14:00.582Z,2.50
2022-12-08T09:16:28.523Z,2.50
2022-12-08T09:18:55.728Z,2.60
2022-12-08T09:21:26.363Z,2.50
2022-12-08T09:23:57.692Z,2.50
2022-12-08T09:26:27.224Z,2.50
2022-12-08T09:28:56.202Z,2.60
2022-12-08T09:31:24.718Z,2.50
2022-12-08T09:33:51.962Z,2.60
2022-12-08T09:36:20.271Z,2.60
2022-12-08T09:38:47.945Z,2.60
2022-12-08T09:41:47.806Z,2.70
2022-12-08T09:44:44.410Z,2.70
2022-12-08T09:47:32.260Z,2.70
2022-12-08T09:50:30.039Z,2.70
2022-12-08T09:53:23.437Z,2.70
2022-12-08T09:56:00.354Z,2.70
2022-12-08T09:58:52.799Z,2.80
2022-12-08T10:01:23.371Z,2.70
2022-12-08T10:03:50.718Z,2.70
2022-12-08T10:06:55.044Z,2.80
2022-12-08T10:09:39.403Z,2.80
2022-12-08T10:12:46.529Z,2.80
2022-12-08T10:15:35.289Z,2.80
2022-12-08T10:18:10.299Z,2.70
2022-12-08T10:20:42.280Z,2.80
2022-12-08T10:23:35.454Z,2.80
2022-12-08T10:26:08.041Z,2.80
2022-12-08T10:28:38.773Z,2.80
2022-12-08T10:31:23.184Z,2.80
2022-12-08T10:34:20.270Z,2.80
2022-12-08T10:36:59.234Z,2.80
2022-12-08T10:39:34.776Z,2.80
2022-12-08T10:42:18.212Z,2.90
2022-12-08T10:44:54.047Z,2.80
2022-12-08T10:47:30.383Z,2.80
2022-12-08T10:50:22.678Z,2.80
2022-12-08T10:53:02.173Z,2.80
2022-12-08T10:55:41.104Z,2.80
2022-12-08T10:58:43.450Z,3.30
2022-12-08T11:01:26.624Z,2.90
2022-12-08T11:04:11.991Z,2.90
2022-12-08T11:06:41.116Z,2.90
2022-12-08T11:09:30.904Z,2.90
2022-12-08T11:12:14.511Z,3.10
2022-12-08T11:14:44.611Z,2.90
2022-12-08T11:17:26.972Z,2.90
2022-12-08T11:20:09.462Z,2.90
2022-12-08T11:22:46.029Z,2.90
2022-12-08T11:25:27.828Z,2.90
2022-12-08T11:28:01.610Z,2.90
2022-12-08T11:30:39.887Z,2.90
2022-12-08T11:33:22.034Z,3.00
2022-12-08T11:35:59.318Z,2.90
2022-12-08T11:38:29.872Z,2.90
2022-12-08T11:41:41.995Z,3.00
2022-12-08T11:44:32.945Z,2.90
2022-12-08T11:47:10.656Z,3.00
2022-12-08T11:49:42.055Z,3.10
2022-12-08T11:52:37.065Z,2.90
2022-12-08T11:55:43.908Z,2.90
2022-12-08T11:58:25.574Z,2.90
2022-12-08T12:00:52.969Z,2.90
2022-12-08T12:03:40.887Z,3.10
2022-12-08T12:06:58.332Z,2.90
2022-12-08T12:10:03.150Z,2.90
2022-12-08T12:12:44.225Z,3.00
2022-12-08T12:15:43.632Z,3.00
2022-12-08T12:19:10.075Z,3.00
2022-12-08T12:21:46.664Z,3.10
2022-12-08T12:24:38.068Z,3.10
2022-12-08T12:27:14.156Z,3.10
2022-12-08T12:30:18.415Z,3.10
2022-12-08T12:32:52.771Z,3.10
2022-12-08T12:35:37.964Z,3.30
2022-12-08T12:38:45.278Z,3.20
2022-12-08T12:41:16.975Z,3.20
2022-12-08T12:44:09.303Z,3.20
2022-12-08T12:46:53.764Z,3.30
2022-12-08T12:49:39.312Z,3.30
2022-12-08T12:52:15.537Z,3.30
2022-12-08T12:55:04.774Z,3.30
2022-12-08T12:57:50.175Z,3.30
2022-12-08T13:00:27.341Z,3.30
2022-12-08T13:02:58.363Z,3.30
2022-12-08T13:05:48.737Z,3.20
2022-12-08T13:08:23.377Z,3.30
2022-12-08T13:11:10.921Z,3.30
2022-12-08T13:13:56.304Z,3.40
2022-12-08T13:16:27.777Z,3.30
2022-12-08T13:19:03.609Z,3.30
2022-12-08T13:21:38.182Z,3.30
2022-12-08T13:24:14.271Z,3.30
2022-12-08T13:26:48.837Z,3.30
2022-12-08T13:29:26.717Z,3.30
2022-12-08T13:32:02.144Z,3.30
2022-12-08T13:34:56.119Z,3.30
2022-12-08T13:37:52.321Z,3.30
2022-12-08T13:40:30.249Z,3.30
2022-12-08T13:43:16.444Z,3.30
2022-12-08T13:56:16.687Z,3.20
2022-12-08T13:57:33.761Z,3.30
2022-12-08T14:00:23.073Z,3.20
2022-12-08T14:02:59.426Z,3.20
2022-12-08T14:06:10.528Z,3.20
2022-12-08T14:11:41.100Z,3.10
2022-12-08T14:14:27.331Z,3.10
2022-12-08T14:17:12.914Z,3.10
2022-12-08T14:19:54.514Z,3.30
2022-12-08T14:22:21.632Z,3.20
2022-12-08T14:24:55.244Z,3.20
2022-12-08T14:27:26.889Z,3.20
2022-12-08T14:30:01.770Z,3.10
2022-12-08T14:32:39.630Z,3.10
2022-12-08T14:35:09.677Z,3.10
2022-12-08T14:37:42.198Z,3.10
2022-12-08T14:40:33.879Z,3.20
2022-12-08T14:43:10.354Z,3.10
2022-12-08T14:45:43.627Z,3.10
2022-12-08T14:48:38.641Z,3.10
2022-12-08T14:51:23.752Z,3.10
2022-12-08T14:54:08.534Z,3.10
2022-12-08T14:57:02.136Z,3.10
2022-12-08T14:59:39.225Z,3.10
2022-12-08T15:02:27.105Z,3.10
2022-12-08T15:05:30.292Z,3.10
2022-12-08T15:08:03.970Z,3.10
2022-12-08T15:10:37.927Z,3.10
2022-12-08T15:13:22.960Z,3.10
2022-12-08T15:15:58.103Z,3.10
2022-12-08T15:18:41.630Z,3.10
2022-12-08T15:21:12.960Z,3.10
2022-12-08T15:23:45.187Z,3.10
2022-12-08T15:26:26.698Z,3.10
2022-12-08T15:28:54.891Z,3.10
2022-12-08T15:31:22.114Z,3.10
2022-12-08T15:33:49.321Z,3.10
2022-12-08T15:36:16.434Z,3.10
2022-12-08T15:38:43.732Z,3.10
2022-12-08T15:41:14.791Z,3.10
2022-12-08T15:43:42.541Z,3.00
2022-12-08T15:46:09.748Z,3.00
2022-12-08T15:48:38.159Z,3.20
2022-12-08T15:51:05.306Z,3.00
2022-12-08T15:53:32.432Z,3.00
2022-12-08T15:58:55.187Z,2.90
2022-12-08T16:01:24.297Z,2.90
2022-12-08T16:09:42.512Z,2.90
2022-12-08T16:13:54.972Z,2.90
2022-12-08T16:15:53.631Z,2.80
2022-12-08T16:18:28.207Z,2.90
2022-12-08T16:21:10.348Z,2.80
2022-12-08T16:23:45.007Z,2.70
2022-12-08T16:26:54.675Z,2.80
2022-12-08T16:29:07.859Z,2.80
2022-12-08T16:31:35.134Z,2.90
2022-12-08T16:34:02.323Z,3.00
2022-12-08T16:36:29.410Z,2.80
2022-12-08T16:38:56.586Z,2.80
2022-12-08T16:41:41.935Z,2.90
2022-12-08T16:44:09.045Z,2.80
2022-12-08T16:46:37.073Z,2.80
2022-12-08T16:49:08.719Z,2.80
2022-12-08T16:51:35.835Z,2.80
2022-12-08T16:54:03.151Z,2.80
2022-12-08T16:56:32.985Z,2.80
2022-12-08T16:59:01.918Z,2.70
2022-12-08T17:01:29.159Z,2.80
2022-12-08T17:04:29.068Z,2.70
2022-12-08T17:06:43.486Z,2.80
2022-12-08T17:09:10.573Z,2.60
2022-12-08T17:11:43.000Z,2.70
2022-12-08T17:14:13.004Z,2.60
2022-12-08T17:16:41.153Z,2.60
2022-12-08T17:19:08.839Z,2.60
2022-12-08T17:21:36.222Z,2.60
2022-12-08T17:24:03.913Z,2.60
2022-12-08T17:26:31.272Z,2.60
2022-12-08T17:29:00.903Z,2.60
2022-12-08T17:31:31.087Z,2.60
2022-12-08T17:34:02.970Z,2.60
2022-12-08T17:36:30.215Z,2.60
2022-12-08T17:39:00.905Z,2.70
2022-12-08T17:41:29.454Z,2.60
2022-12-08T17:43:57.071Z,2.60
2022-12-08T17:46:24.548Z,2.60
2022-12-08T17:48:52.071Z,2.50
2022-12-08T17:51:19.921Z,2.50
2022-12-08T17:53:47.013Z,2.50
2022-12-08T17:56:19.599Z,2.60
2022-12-08T17:58:51.287Z,2.50
2022-12-08T18:01:22.146Z,2.60
2022-12-08T18:03:49.305Z,2.60
2022-12-08T18:06:17.797Z,2.60
2022-12-08T18:08:45.642Z,2.50
2022-12-08T18:11:20.769Z,2.50
2022-12-08T18:13:49.820Z,2.50
2022-12-08T18:16:19.529Z,2.50
2022-12-08T18:18:47.468Z,2.50
2022-12-08T18:21:22.858Z,2.50
2022-12-08T18:23:50.888Z,2.40
2022-12-08T18:26:18.161Z,2.50
2022-12-08T18:28:45.426Z,2.50
2022-12-08T18:31:17.760Z,2.50
2022-12-08T18:33:47.124Z,2.50
2022-12-08T18:36:21.380Z,2.60
2022-12-08T18:38:48.952Z,2.50
2022-12-08T18:41:26.081Z,2.50
2022-12-08T18:43:55.432Z,2.50
2022-12-08T18:46:23.730Z,2.50
2022-12-08T18:48:52.337Z,2.50
2022-12-08T18:51:24.168Z,2.50
2022-12-08T18:53:52.889Z,2.50
2022-12-08T18:56:28.600Z,2.50
2022-12-08T18:59:03.281Z,2.40
2022-12-08T19:01:33.770Z,2.50
2022-12-08T19:04:27.340Z,2.40
2022-12-08T19:06:52.921Z,2.40
2022-12-08T19:09:20.735Z,2.40
2022-12-08T19:11:47.937Z,2.40
2022-12-08T19:14:15.293Z,2.40
2022-12-08T19:16:42.374Z,2.40
2022-12-08T19:19:09.536Z,2.40
2022-12-08T19:21:41.527Z,2.40
2022-12-08T19:24:13.326Z,2.40
2022-12-08T19:26:40.544Z,2.40
2022-12-08T19:29:07.793Z,2.40
2022-12-08T19:31:35.555Z,2.40
2022-12-08T19:34:02.977Z,2.40
2022-12-08T19:36:35.412Z,2.30
2022-12-08T19:39:23.582Z,3.00
2022-12-08T19:42:09.826Z,2.40
2022-12-08T19:44:55.456Z,2.30
2022-12-08T19:47:27.616Z,2.30
2022-12-08T19:50:16.188Z,2.30
2022-12-08T19:52:44.373Z,2.30
2022-12-08T19:55:11.990Z,2.30
2022-12-08T19:57:39.126Z,2.30
2022-12-08T20:00:09.694Z,2.40
2022-12-08T20:02:37.672Z,2.40
2022-12-08T20:05:06.527Z,2.40
2022-12-08T20:07:33.963Z,2.40
2022-12-08T20:10:02.581Z,2.40
2022-12-08T20:12:29.908Z,2.40
2022-12-08T20:14:57.022Z,2.40
2022-12-08T20:17:24.154Z,2.40
2022-12-08T20:19:51.403Z,2.40
2022-12-08T20:22:18.523Z,2.40
2022-12-08T20:24:49.182Z,2.40
2022-12-08T20:27:23.588Z,2.40
2022-12-08T20:29:52.476Z,2.50
2022-12-08T20:32:19.549Z,2.40
2022-12-08T20:34:46.709Z,2.40
2022-12-08T20:37:14.069Z,2.30
2022-12-08T20:39:41.144Z,2.50
2022-12-08T20:42:13.714Z,2.30
2022-12-08T20:44:44.462Z,2.30
2022-12-08T20:47:13.211Z,2.20
2022-12-08T20:49:40.441Z,2.10
2022-12-08T20:52:08.866Z,2.10
2022-12-08T20:54:37.627Z,2.10
2022-12-08T20:57:05.281Z,2.10
2022-12-08T20:59:32.910Z,2.10
2022-12-08T21:02:00.796Z,2.10
2022-12-08T21:04:28.188Z,2.10
2022-12-08T21:06:55.719Z,2.10
2022-12-08T21:09:22.990Z,2.10
2022-12-08T21:11:50.437Z,2.10
2022-12-08T21:14:17.670Z,2.10
2022-12-08T21:16:44.988Z,2.10
2022-12-08T21:19:12.517Z,2.10
2022-12-08T21:21:39.683Z,2.00
2022-12-08T21:24:07.513Z,1.90
2022-12-08T21:26:34.830Z,1.90
2022-12-08T21:29:01.986Z,1.90
2022-12-08T21:31:31.929Z,1.90
2022-12-08T21:34:01.229Z,2.20
2022-12-08T21:36:30.430Z,1.90
2022-12-08T21:39:02.707Z,2.00
2022-12-08T21:41:48.982Z,2.00
2022-12-08T21:44:20.260Z,2.00
2022-12-08T21:46:47.924Z,2.00
2022-12-08T21:49:16.041Z,2.00
2022-12-08T21:51:43.203Z,2.20
2022-12-08T21:54:18.728Z,2.10
2022-12-08T21:56:48.381Z,2.10
2022-12-08T21:59:16.783Z,2.10
2022-12-08T22:01:44.690Z,2.10
2022-12-08T22:04:17.487Z,2.10
2022-12-08T22:06:44.852Z,2.00
2022-12-08T22:09:13.453Z,2.00
2022-12-08T22:11:42.087Z,2.00
2022-12-08T22:14:14.356Z,2.10
2022-12-08T22:16:43.217Z,2.10
2022-12-08T22:19:10.702Z,2.10
2022-12-08T22:21:38.395Z,2.10
2022-12-08T22:24:06.235Z,2.10
2022-12-08T22:26:34.412Z,2.10
2022-12-08T22:29:01.793Z,2.00
2022-12-08T22:31:29.165Z,2.00
2022-12-08T22:33:58.780Z,2.00
2022-12-08T22:36:28.104Z,2.00
2022-12-08T22:38:55.890Z,2.20
2022-12-08T22:41:23.818Z,1.90
2022-12-08T22:43:51.471Z,2.00
2022-12-08T22:46:27.257Z,1.90
2022-12-08T22:48:55.338Z,1.90
2022-12-08T22:51:22.703Z,1.90
2022-12-08T22:53:50.921Z,1.80
2022-12-08T22:56:19.261Z,1.80
2022-12-08T22:58:46.570Z,1.80
2022-12-08T23:01:29.046Z,1.80
2022-12-08T23:03:58.322Z,1.80
2022-12-08T23:06:27.871Z,1.80
2022-12-08T23:08:56.362Z,1.70
2022-12-08T23:11:28.715Z,1.80
2022-12-08T23:13:57.579Z,1.80
2022-12-08T23:16:24.731Z,1.80
2022-12-08T23:18:52.286Z,1.80
2022-12-08T23:21:20.771Z,1.80
2022-12-08T23:23:48.322Z,1.80
2022-12-08T23:26:18.111Z,1.80
2022-12-08T23:28:45.715Z,1.70
2022-12-08T23:31:12.893Z,1.70
2022-12-08T23:33:40.096Z,1.80
2022-12-08T23:36:07.862Z,1.90
2022-12-08T23:38:35.326Z,1.70
2022-12-08T23:41:05.505Z,1.80
2022-12-08T23:43:34.127Z,1.80
2022-12-08T23:46:01.549Z,1.80
2022-12-08T23:48:29.225Z,1.80
2022-12-08T23:50:59.405Z,1.80
2022-12-08T23:53:28.429Z,1.70
2022-12-08T23:56:08.221Z,1.70
2022-12-08T23:58:36.655Z,1.70
